sensor_id;sensor_type;location;lat;lon;timestamp;P1;P2;P0
60816;PMS5003;51921;51.518;-3.188;2024-02-21T00:00:57;8;6;
60816;PMS5003;51921;51.518;-3.188;2024-02-21T00:03:24;8;8;
60816;PMS5003;51921;51.518;-3.188;2024-02-21T00:05:49;6;6;
60816;PMS5003;51921;51.518;-3.188;2024-02-21T00:08:14;6;6;
60816;PMS5003;51921;51.518;-3.188;2024-02-21T00:10:40;8;6;
60816;PMS5003;51921;51.518;-3.188;2024-02-21T00:13:05;7;7;
60816;PMS5003;51921;51.518;-3.188;2024-02-21T00:15:31;6;5;
60816;PMS5003;51921;51.518;-3.188;2024-02-21T00:17:56;3;3;
60816;PMS5003;51921;51.518;-3.188;2024-02-21T00:20:22;7;6;
60816;PMS5003;51921;51.518;-3.188;2024-02-21T00:22:47;5;3;
60816;PMS5003;51921;51.518;-3.188;2024-02-21T00:25:13;5;5;
60816;PMS5003;51921;51.518;-3.188;2024-02-21T00:27:38;4;4;
60816;PMS5003;51921;51.518;-3.188;2024-02-21T00:30:04;3;3;
60816;PMS5003;51921;51.518;-3.188;2024-02-21T00:32:29;3;3;
60816;PMS5003;51921;51.518;-3.188;2024-02-21T00:34:54;3;3;
60816;PMS5003;51921;51.518;-3.188;2024-02-21T00:37:20;4;3;
60816;PMS5003;51921;51.518;-3.188;2024-02-21T00:39:45;4;4;
60816;PMS5003;51921;51.518;-3.188;2024-02-21T00:42:11;3;3;
60816;PMS5003;51921;51.518;-3.188;2024-02-21T00:44:36;6;4;
60816;PMS5003;51921;51.518;-3.188;2024-02-21T00:47:02;4;3;
60816;PMS5003;51921;51.518;-3.188;2024-02-21T00:51:53;4;4;
60816;PMS5003;51921;51.518;-3.188;2024-02-21T00:54:18;5;5;
60816;PMS5003;51921;51.518;-3.188;2024-02-21T00:56:44;4;3;
60816;PMS5003;51921;51.518;-3.188;2024-02-21T00:59:09;6;4;
60816;PMS5003;51921;51.518;-3.188;2024-02-21T01:01:35;4;4;
60816;PMS5003;51921;51.518;-3.188;2024-02-21T01:04:00;5;4;
60816;PMS5003;51921;51.518;-3.188;2024-02-21T01:06:26;4;4;
60816;PMS5003;51921;51.518;-3.188;2024-02-21T01:08:51;6;5;
60816;PMS5003;51921;51.518;-3.188;2024-02-21T01:11:17;6;5;
60816;PMS5003;51921;51.518;-3.188;2024-02-21T01:13:42;4;4;
60816;PMS5003;51921;51.518;-3.188;2024-02-21T01:16:08;5;5;
60816;PMS5003;51921;51.518;-3.188;2024-02-21T01:18:33;7;6;
60816;PMS5003;51921;51.518;-3.188;2024-02-21T01:21:04;7;6;
60816;PMS5003;51921;51.518;-3.188;2024-02-21T01:23:24;8;7;
60816;PMS5003;51921;51.518;-3.188;2024-02-21T01:25:50;7;6;
60816;PMS5003;51921;51.518;-3.188;2024-02-21T01:28:15;6;5;
60816;PMS5003;51921;51.518;-3.188;2024-02-21T01:30:41;5;5;
60816;PMS5003;51921;51.518;-3.188;2024-02-21T01:33:06;4;4;
60816;PMS5003;51921;51.518;-3.188;2024-02-21T01:35:31;6;5;
60816;PMS5003;51921;51.518;-3.188;2024-02-21T01:37:57;7;5;
60816;PMS5003;51921;51.518;-3.188;2024-02-21T01:40:22;6;6;
60816;PMS5003;51921;51.518;-3.188;2024-02-21T01:42:48;7;5;
60816;PMS5003;51921;51.518;-3.188;2024-02-21T01:45:13;4;4;
60816;PMS5003;51921;51.518;-3.188;2024-02-21T01:47:38;5;5;
60816;PMS5003;51921;51.518;-3.188;2024-02-21T01:50:04;5;5;
60816;PMS5003;51921;51.518;-3.188;2024-02-21T01:52:31;3;3;
60816;PMS5003;51921;51.518;-3.188;2024-02-21T01:54:55;7;6;
60816;PMS5003;51921;51.518;-3.188;2024-02-21T01:57:20;6;5;
60816;PMS5003;51921;51.518;-3.188;2024-02-21T01:59:46;5;5;
60816;PMS5003;51921;51.518;-3.188;2024-02-21T02:02:11;6;5;
60816;PMS5003;51921;51.518;-3.188;2024-02-21T02:04:37;4;4;
60816;PMS5003;51921;51.518;-3.188;2024-02-21T02:07:02;5;5;
60816;PMS5003;51921;51.518;-3.188;2024-02-21T02:09:28;5;4;
60816;PMS5003;51921;51.518;-3.188;2024-02-21T02:11:53;4;4;
60816;PMS5003;51921;51.518;-3.188;2024-02-21T02:14:19;5;5;
60816;PMS5003;51921;51.518;-3.188;2024-02-21T02:16:46;5;5;
60816;PMS5003;51921;51.518;-3.188;2024-02-21T02:19:10;5;5;
60816;PMS5003;51921;51.518;-3.188;2024-02-21T02:21:38;4;4;
60816;PMS5003;51921;51.518;-3.188;2024-02-21T02:24:01;6;5;
60816;PMS5003;51921;51.518;-3.188;2024-02-21T02:26:26;3;3;
60816;PMS5003;51921;51.518;-3.188;2024-02-21T02:28:52;5;4;
60816;PMS5003;51921;51.518;-3.188;2024-02-21T02:31:17;4;4;
60816;PMS5003;51921;51.518;-3.188;2024-02-21T02:33:43;4;4;
60816;PMS5003;51921;51.518;-3.188;2024-02-21T02:36:08;4;4;
60816;PMS5003;51921;51.518;-3.188;2024-02-21T02:38:34;5;4;
60816;PMS5003;51921;51.518;-3.188;2024-02-21T02:43:25;4;4;
60816;PMS5003;51921;51.518;-3.188;2024-02-21T02:45:50;4;3;
60816;PMS5003;51921;51.518;-3.188;2024-02-21T02:48:16;5;5;
60816;PMS5003;51921;51.518;-3.188;2024-02-21T02:50:41;5;4;
60816;PMS5003;51921;51.518;-3.188;2024-02-21T02:53:07;4;4;
60816;PMS5003;51921;51.518;-3.188;2024-02-21T02:55:32;4;4;
60816;PMS5003;51921;51.518;-3.188;2024-02-21T02:57:58;3;3;
60816;PMS5003;51921;51.518;-3.188;2024-02-21T03:00:23;6;4;
60816;PMS5003;51921;51.518;-3.188;2024-02-21T03:02:49;5;4;
60816;PMS5003;51921;51.518;-3.188;2024-02-21T03:05:14;5;5;
60816;PMS5003;51921;51.518;-3.188;2024-02-21T03:07:40;5;4;
60816;PMS5003;51921;51.518;-3.188;2024-02-21T03:10:05;4;4;
60816;PMS5003;51921;51.518;-3.188;2024-02-21T03:12:31;4;3;
60816;PMS5003;51921;51.518;-3.188;2024-02-21T03:14:56;4;4;
60816;PMS5003;51921;51.518;-3.188;2024-02-21T03:17:21;2;1;
60816;PMS5003;51921;51.518;-3.188;2024-02-21T03:19:47;2;2;
60816;PMS5003;51921;51.518;-3.188;2024-02-21T03:22:12;5;4;
60816;PMS5003;51921;51.518;-3.188;2024-02-21T03:24:37;3;2;
60816;PMS5003;51921;51.518;-3.188;2024-02-21T03:27:03;3;3;
60816;PMS5003;51921;51.518;-3.188;2024-02-21T03:29:29;5;4;
60816;PMS5003;51921;51.518;-3.188;2024-02-21T03:31:54;4;4;
60816;PMS5003;51921;51.518;-3.188;2024-02-21T03:34:19;3;3;
60816;PMS5003;51921;51.518;-3.188;2024-02-21T03:36:45;5;5;
60816;PMS5003;51921;51.518;-3.188;2024-02-21T03:39:10;7;5;
60816;PMS5003;51921;51.518;-3.188;2024-02-21T03:41:36;5;3;
60816;PMS5003;51921;51.518;-3.188;2024-02-21T03:44:01;4;4;
60816;PMS5003;51921;51.518;-3.188;2024-02-21T03:46:27;7;5;
60816;PMS5003;51921;51.518;-3.188;2024-02-21T03:48:52;5;5;
60816;PMS5003;51921;51.518;-3.188;2024-02-21T03:51:18;7;7;
60816;PMS5003;51921;51.518;-3.188;2024-02-21T03:53:43;5;5;
60816;PMS5003;51921;51.518;-3.188;2024-02-21T03:56:08;6;5;
60816;PMS5003;51921;51.518;-3.188;2024-02-21T03:58:34;7;6;
60816;PMS5003;51921;51.518;-3.188;2024-02-21T04:01:00;5;5;
60816;PMS5003;51921;51.518;-3.188;2024-02-21T04:03:24;7;7;
60816;PMS5003;51921;51.518;-3.188;2024-02-21T04:05:50;7;6;
60816;PMS5003;51921;51.518;-3.188;2024-02-21T04:08:15;4;4;
60816;PMS5003;51921;51.518;-3.188;2024-02-21T04:10:41;4;4;
60816;PMS5003;51921;51.518;-3.188;2024-02-21T04:13:06;9;6;
60816;PMS5003;51921;51.518;-3.188;2024-02-21T04:15:32;7;6;
60816;PMS5003;51921;51.518;-3.188;2024-02-21T04:17:57;6;6;
60816;PMS5003;51921;51.518;-3.188;2024-02-21T04:20:23;4;4;
60816;PMS5003;51921;51.518;-3.188;2024-02-21T04:22:48;5;5;
60816;PMS5003;51921;51.518;-3.188;2024-02-21T04:25:14;5;5;
60816;PMS5003;51921;51.518;-3.188;2024-02-21T04:27:39;3;3;
60816;PMS5003;51921;51.518;-3.188;2024-02-21T04:30:05;5;5;
60816;PMS5003;51921;51.518;-3.188;2024-02-21T04:32:30;3;3;
60816;PMS5003;51921;51.518;-3.188;2024-02-21T04:34:56;4;4;
60816;PMS5003;51921;51.518;-3.188;2024-02-21T04:37:22;5;5;
60816;PMS5003;51921;51.518;-3.188;2024-02-21T04:39:47;6;6;
60816;PMS5003;51921;51.518;-3.188;2024-02-21T04:42:12;5;4;
60816;PMS5003;51921;51.518;-3.188;2024-02-21T04:44:38;8;6;
60816;PMS5003;51921;51.518;-3.188;2024-02-21T04:47:03;2;2;
60816;PMS5003;51921;51.518;-3.188;2024-02-21T04:49:29;5;4;
60816;PMS5003;51921;51.518;-3.188;2024-02-21T04:51:55;7;5;
60816;PMS5003;51921;51.518;-3.188;2024-02-21T04:54:20;4;4;
60816;PMS5003;51921;51.518;-3.188;2024-02-21T04:56:46;4;4;
60816;PMS5003;51921;51.518;-3.188;2024-02-21T04:59:11;4;4;
60816;PMS5003;51921;51.518;-3.188;2024-02-21T05:01:37;3;3;
60816;PMS5003;51921;51.518;-3.188;2024-02-21T05:04:02;4;4;
60816;PMS5003;51921;51.518;-3.188;2024-02-21T05:06:27;4;3;
60816;PMS5003;51921;51.518;-3.188;2024-02-21T05:08:53;4;4;
60816;PMS5003;51921;51.518;-3.188;2024-02-21T05:11:18;4;4;
60816;PMS5003;51921;51.518;-3.188;2024-02-21T05:13:44;6;4;
60816;PMS5003;51921;51.518;-3.188;2024-02-21T05:16:09;2;2;
60816;PMS5003;51921;51.518;-3.188;2024-02-21T05:18:35;4;4;
60816;PMS5003;51921;51.518;-3.188;2024-02-21T05:21:00;4;3;
60816;PMS5003;51921;51.518;-3.188;2024-02-21T05:23:26;4;4;
60816;PMS5003;51921;51.518;-3.188;2024-02-21T05:25:51;3;3;
60816;PMS5003;51921;51.518;-3.188;2024-02-21T05:28:17;4;3;
60816;PMS5003;51921;51.518;-3.188;2024-02-21T05:30:42;4;3;
60816;PMS5003;51921;51.518;-3.188;2024-02-21T05:33:08;4;3;
60816;PMS5003;51921;51.518;-3.188;2024-02-21T05:35:34;6;5;
60816;PMS5003;51921;51.518;-3.188;2024-02-21T05:37:59;3;3;
60816;PMS5003;51921;51.518;-3.188;2024-02-21T05:40:24;3;3;
60816;PMS5003;51921;51.518;-3.188;2024-02-21T05:42:50;3;3;
60816;PMS5003;51921;51.518;-3.188;2024-02-21T05:45:15;3;3;
60816;PMS5003;51921;51.518;-3.188;2024-02-21T05:47:41;3;3;
60816;PMS5003;51921;51.518;-3.188;2024-02-21T05:50:06;3;3;
60816;PMS5003;51921;51.518;-3.188;2024-02-21T05:52:32;3;3;
60816;PMS5003;51921;51.518;-3.188;2024-02-21T05:54:57;1;1;
60816;PMS5003;51921;51.518;-3.188;2024-02-21T05:57:23;3;3;
60816;PMS5003;51921;51.518;-3.188;2024-02-21T05:59:49;2;2;
60816;PMS5003;51921;51.518;-3.188;2024-02-21T06:02:14;3;2;
60816;PMS5003;51921;51.518;-3.188;2024-02-21T06:04:40;2;2;
60816;PMS5003;51921;51.518;-3.188;2024-02-21T06:07:05;3;2;
60816;PMS5003;51921;51.518;-3.188;2024-02-21T06:09:30;2;2;
60816;PMS5003;51921;51.518;-3.188;2024-02-21T06:11:56;3;2;
60816;PMS5003;51921;51.518;-3.188;2024-02-21T06:14:22;3;3;
60816;PMS5003;51921;51.518;-3.188;2024-02-21T06:16:47;2;2;
60816;PMS5003;51921;51.518;-3.188;2024-02-21T06:19:13;3;2;
60816;PMS5003;51921;51.518;-3.188;2024-02-21T06:21:38;2;2;
60816;PMS5003;51921;51.518;-3.188;2024-02-21T06:24:04;1;1;
60816;PMS5003;51921;51.518;-3.188;2024-02-21T06:26:29;2;2;
60816;PMS5003;51921;51.518;-3.188;2024-02-21T06:28:55;2;2;
60816;PMS5003;51921;51.518;-3.188;2024-02-21T06:31:20;3;3;
60816;PMS5003;51921;51.518;-3.188;2024-02-21T06:33:46;4;3;
60816;PMS5003;51921;51.518;-3.188;2024-02-21T06:36:11;2;2;
60816;PMS5003;51921;51.518;-3.188;2024-02-21T06:38:37;1;1;
60816;PMS5003;51921;51.518;-3.188;2024-02-21T06:41:02;3;2;
60816;PMS5003;51921;51.518;-3.188;2024-02-21T06:45:55;1;0;
60816;PMS5003;51921;51.518;-3.188;2024-02-21T06:48:19;3;2;
60816;PMS5003;51921;51.518;-3.188;2024-02-21T06:50:45;0;0;
60816;PMS5003;51921;51.518;-3.188;2024-02-21T06:53:10;2;2;
60816;PMS5003;51921;51.518;-3.188;2024-02-21T06:55:41;2;2;
60816;PMS5003;51921;51.518;-3.188;2024-02-21T06:58:01;1;1;
60816;PMS5003;51921;51.518;-3.188;2024-02-21T07:00:26;1;1;
60816;PMS5003;51921;51.518;-3.188;2024-02-21T07:02:52;1;1;
60816;PMS5003;51921;51.518;-3.188;2024-02-21T07:05:17;1;0;
60816;PMS5003;51921;51.518;-3.188;2024-02-21T07:07:43;3;2;
60816;PMS5003;51921;51.518;-3.188;2024-02-21T07:10:09;1;0;
60816;PMS5003;51921;51.518;-3.188;2024-02-21T07:12:34;2;2;
60816;PMS5003;51921;51.518;-3.188;2024-02-21T07:15:00;0;0;
60816;PMS5003;51921;51.518;-3.188;2024-02-21T07:17:25;4;3;
60816;PMS5003;51921;51.518;-3.188;2024-02-21T07:19:51;3;2;
60816;PMS5003;51921;51.518;-3.188;2024-02-21T07:22:16;1;1;
60816;PMS5003;51921;51.518;-3.188;2024-02-21T07:24:42;2;2;
60816;PMS5003;51921;51.518;-3.188;2024-02-21T07:27:07;2;2;
60816;PMS5003;51921;51.518;-3.188;2024-02-21T07:29:33;1;1;
60816;PMS5003;51921;51.518;-3.188;2024-02-21T07:31:58;2;2;
60816;PMS5003;51921;51.518;-3.188;2024-02-21T07:34:25;3;2;
60816;PMS5003;51921;51.518;-3.188;2024-02-21T07:39:15;4;3;
60816;PMS5003;51921;51.518;-3.188;2024-02-21T07:41:40;2;1;
60816;PMS5003;51921;51.518;-3.188;2024-02-21T07:44:06;1;1;
60816;PMS5003;51921;51.518;-3.188;2024-02-21T07:46:31;2;1;
60816;PMS5003;51921;51.518;-3.188;2024-02-21T07:48:57;2;2;
60816;PMS5003;51921;51.518;-3.188;2024-02-21T07:51:23;2;2;
60816;PMS5003;51921;51.518;-3.188;2024-02-21T07:53:48;2;2;
60816;PMS5003;51921;51.518;-3.188;2024-02-21T07:56:13;2;2;
60816;PMS5003;51921;51.518;-3.188;2024-02-21T07:58:40;1;0;
60816;PMS5003;51921;51.518;-3.188;2024-02-21T08:01:05;1;1;
60816;PMS5003;51921;51.518;-3.188;2024-02-21T08:03:30;1;1;
60816;PMS5003;51921;51.518;-3.188;2024-02-21T08:05:55;2;1;
60816;PMS5003;51921;51.518;-3.188;2024-02-21T08:08:21;2;1;
60816;PMS5003;51921;51.518;-3.188;2024-02-21T08:10:46;1;1;
60816;PMS5003;51921;51.518;-3.188;2024-02-21T08:13:12;1;1;
60816;PMS5003;51921;51.518;-3.188;2024-02-21T08:15:38;2;2;
60816;PMS5003;51921;51.518;-3.188;2024-02-21T08:18:03;2;1;
60816;PMS5003;51921;51.518;-3.188;2024-02-21T08:20:28;3;3;
60816;PMS5003;51921;51.518;-3.188;2024-02-21T08:22:54;3;2;
60816;PMS5003;51921;51.518;-3.188;2024-02-21T08:25:19;1;1;
60816;PMS5003;51921;51.518;-3.188;2024-02-21T08:27:45;2;2;
60816;PMS5003;51921;51.518;-3.188;2024-02-21T08:30:11;1;1;
60816;PMS5003;51921;51.518;-3.188;2024-02-21T08:32:36;1;1;
60816;PMS5003;51921;51.518;-3.188;2024-02-21T08:35:01;1;1;
60816;PMS5003;51921;51.518;-3.188;2024-02-21T08:37:27;2;1;
60816;PMS5003;51921;51.518;-3.188;2024-02-21T08:39:52;2;1;
60816;PMS5003;51921;51.518;-3.188;2024-02-21T08:42:18;1;1;
60816;PMS5003;51921;51.518;-3.188;2024-02-21T08:44:44;2;2;
60816;PMS5003;51921;51.518;-3.188;2024-02-21T08:47:09;1;1;
60816;PMS5003;51921;51.518;-3.188;2024-02-21T08:49:35;1;1;
60816;PMS5003;51921;51.518;-3.188;2024-02-21T08:52:00;1;1;
60816;PMS5003;51921;51.518;-3.188;2024-02-21T08:54:26;1;1;
60816;PMS5003;51921;51.518;-3.188;2024-02-21T08:56:51;2;1;
60816;PMS5003;51921;51.518;-3.188;2024-02-21T08:59:17;2;1;
60816;PMS5003;51921;51.518;-3.188;2024-02-21T09:01:43;1;1;
60816;PMS5003;51921;51.518;-3.188;2024-02-21T09:04:08;2;2;
60816;PMS5003;51921;51.518;-3.188;2024-02-21T09:06:33;2;1;
60816;PMS5003;51921;51.518;-3.188;2024-02-21T09:08:59;1;1;
60816;PMS5003;51921;51.518;-3.188;2024-02-21T09:11:24;2;1;
60816;PMS5003;51921;51.518;-3.188;2024-02-21T09:13:55;1;1;
60816;PMS5003;51921;51.518;-3.188;2024-02-21T09:16:15;1;1;
60816;PMS5003;51921;51.518;-3.188;2024-02-21T09:18:41;2;1;
60816;PMS5003;51921;51.518;-3.188;2024-02-21T09:21:06;2;2;
60816;PMS5003;51921;51.518;-3.188;2024-02-21T09:23:32;1;1;
60816;PMS5003;51921;51.518;-3.188;2024-02-21T09:25:57;1;0;
60816;PMS5003;51921;51.518;-3.188;2024-02-21T09:28:23;2;1;
60816;PMS5003;51921;51.518;-3.188;2024-02-21T09:30:48;1;0;
60816;PMS5003;51921;51.518;-3.188;2024-02-21T09:33:14;1;1;
60816;PMS5003;51921;51.518;-3.188;2024-02-21T09:35:39;1;1;
60816;PMS5003;51921;51.518;-3.188;2024-02-21T09:38:05;0;0;
60816;PMS5003;51921;51.518;-3.188;2024-02-21T09:40:30;1;1;
60816;PMS5003;51921;51.518;-3.188;2024-02-21T09:42:59;1;1;
60816;PMS5003;51921;51.518;-3.188;2024-02-21T09:45:22;1;1;
60816;PMS5003;51921;51.518;-3.188;2024-02-21T09:47:50;1;0;
60816;PMS5003;51921;51.518;-3.188;2024-02-21T09:50:12;1;1;
60816;PMS5003;51921;51.518;-3.188;2024-02-21T09:52:38;1;1;
60816;PMS5003;51921;51.518;-3.188;2024-02-21T09:55:04;0;0;
60816;PMS5003;51921;51.518;-3.188;2024-02-21T09:57:29;1;0;
60816;PMS5003;51921;51.518;-3.188;2024-02-21T09:59:55;0;0;
60816;PMS5003;51921;51.518;-3.188;2024-02-21T10:02:20;0;0;
60816;PMS5003;51921;51.518;-3.188;2024-02-21T10:04:45;0;0;
60816;PMS5003;51921;51.518;-3.188;2024-02-21T10:07:11;2;2;
60816;PMS5003;51921;51.518;-3.188;2024-02-21T10:09:36;1;0;
60816;PMS5003;51921;51.518;-3.188;2024-02-21T10:12:07;0;0;
60816;PMS5003;51921;51.518;-3.188;2024-02-21T10:14:28;1;1;
60816;PMS5003;51921;51.518;-3.188;2024-02-21T10:16:56;1;0;
60816;PMS5003;51921;51.518;-3.188;2024-02-21T10:19:18;2;2;
60816;PMS5003;51921;51.518;-3.188;2024-02-21T10:21:44;0;0;
60816;PMS5003;51921;51.518;-3.188;2024-02-21T10:24:09;1;1;
60816;PMS5003;51921;51.518;-3.188;2024-02-21T10:26:34;0;0;
60816;PMS5003;51921;51.518;-3.188;2024-02-21T10:29:00;1;1;
60816;PMS5003;51921;51.518;-3.188;2024-02-21T10:31:26;1;1;
60816;PMS5003;51921;51.518;-3.188;2024-02-21T10:33:55;1;0;
60816;PMS5003;51921;51.518;-3.188;2024-02-21T10:36:16;0;0;
60816;PMS5003;51921;51.518;-3.188;2024-02-21T10:38:42;1;0;
60816;PMS5003;51921;51.518;-3.188;2024-02-21T10:41:07;2;1;
60816;PMS5003;51921;51.518;-3.188;2024-02-21T10:43:37;0;0;
60816;PMS5003;51921;51.518;-3.188;2024-02-21T10:45:58;0;0;
60816;PMS5003;51921;51.518;-3.188;2024-02-21T10:48:31;1;1;
60816;PMS5003;51921;51.518;-3.188;2024-02-21T10:50:53;0;0;
60816;PMS5003;51921;51.518;-3.188;2024-02-21T10:53:17;2;0;
60816;PMS5003;51921;51.518;-3.188;2024-02-21T10:55:41;0;0;
60816;PMS5003;51921;51.518;-3.188;2024-02-21T10:58:06;0;0;
60816;PMS5003;51921;51.518;-3.188;2024-02-21T11:00:31;1;1;
60816;PMS5003;51921;51.518;-3.188;2024-02-21T11:02:57;1;0;
60816;PMS5003;51921;51.518;-3.188;2024-02-21T11:05:22;0;0;
60816;PMS5003;51921;51.518;-3.188;2024-02-21T11:07:48;0;0;
60816;PMS5003;51921;51.518;-3.188;2024-02-21T11:10:20;0;0;
60816;PMS5003;51921;51.518;-3.188;2024-02-21T11:12:39;0;0;
60816;PMS5003;51921;51.518;-3.188;2024-02-21T11:15:05;0;0;
60816;PMS5003;51921;51.518;-3.188;2024-02-21T11:17:30;1;0;
60816;PMS5003;51921;51.518;-3.188;2024-02-21T11:19:55;0;0;
60816;PMS5003;51921;51.518;-3.188;2024-02-21T11:22:21;0;0;
60816;PMS5003;51921;51.518;-3.188;2024-02-21T11:24:46;0;0;
60816;PMS5003;51921;51.518;-3.188;2024-02-21T11:27:12;1;0;
60816;PMS5003;51921;51.518;-3.188;2024-02-21T11:29:41;0;0;
60816;PMS5003;51921;51.518;-3.188;2024-02-21T11:32:03;0;0;
60816;PMS5003;51921;51.518;-3.188;2024-02-21T11:34:28;0;0;
60816;PMS5003;51921;51.518;-3.188;2024-02-21T11:36:54;2;1;
60816;PMS5003;51921;51.518;-3.188;2024-02-21T11:39:20;0;0;
60816;PMS5003;51921;51.518;-3.188;2024-02-21T11:41:45;1;1;
60816;PMS5003;51921;51.518;-3.188;2024-02-21T11:44:10;0;0;
60816;PMS5003;51921;51.518;-3.188;2024-02-21T11:46:36;0;0;
60816;PMS5003;51921;51.518;-3.188;2024-02-21T11:49:01;0;0;
60816;PMS5003;51921;51.518;-3.188;2024-02-21T11:51:27;0;0;
60816;PMS5003;51921;51.518;-3.188;2024-02-21T11:53:52;1;1;
60816;PMS5003;51921;51.518;-3.188;2024-02-21T11:56:18;0;0;
60816;PMS5003;51921;51.518;-3.188;2024-02-21T11:58:43;1;1;
60816;PMS5003;51921;51.518;-3.188;2024-02-21T12:01:09;0;0;
60816;PMS5003;51921;51.518;-3.188;2024-02-21T12:03:34;0;0;
60816;PMS5003;51921;51.518;-3.188;2024-02-21T12:05:59;0;0;
60816;PMS5003;51921;51.518;-3.188;2024-02-21T12:08:25;1;1;
60816;PMS5003;51921;51.518;-3.188;2024-02-21T12:10:50;1;0;
60816;PMS5003;51921;51.518;-3.188;2024-02-21T12:13:16;2;1;
60816;PMS5003;51921;51.518;-3.188;2024-02-21T12:15:41;1;1;
60816;PMS5003;51921;51.518;-3.188;2024-02-21T12:18:07;0;0;
60816;PMS5003;51921;51.518;-3.188;2024-02-21T12:20:32;0;0;
60816;PMS5003;51921;51.518;-3.188;2024-02-21T12:22:59;0;0;
60816;PMS5003;51921;51.518;-3.188;2024-02-21T12:25:23;0;0;
60816;PMS5003;51921;51.518;-3.188;2024-02-21T12:27:49;0;0;
60816;PMS5003;51921;51.518;-3.188;2024-02-21T12:30:14;0;0;
60816;PMS5003;51921;51.518;-3.188;2024-02-21T12:32:40;2;2;
60816;PMS5003;51921;51.518;-3.188;2024-02-21T12:35:06;0;0;
60816;PMS5003;51921;51.518;-3.188;2024-02-21T12:37:31;1;1;
60816;PMS5003;51921;51.518;-3.188;2024-02-21T12:39:56;1;1;
60816;PMS5003;51921;51.518;-3.188;2024-02-21T12:42:22;1;1;
60816;PMS5003;51921;51.518;-3.188;2024-02-21T12:44:47;1;1;
60816;PMS5003;51921;51.518;-3.188;2024-02-21T12:47:12;0;0;
60816;PMS5003;51921;51.518;-3.188;2024-02-21T12:49:38;0;0;
60816;PMS5003;51921;51.518;-3.188;2024-02-21T12:52:03;1;1;
60816;PMS5003;51921;51.518;-3.188;2024-02-21T12:54:29;2;1;
60816;PMS5003;51921;51.518;-3.188;2024-02-21T12:56:54;1;0;
60816;PMS5003;51921;51.518;-3.188;2024-02-21T12:59:20;0;0;
60816;PMS5003;51921;51.518;-3.188;2024-02-21T13:01:45;1;1;
60816;PMS5003;51921;51.518;-3.188;2024-02-21T13:04:11;1;1;
60816;PMS5003;51921;51.518;-3.188;2024-02-21T13:06:36;3;1;
60816;PMS5003;51921;51.518;-3.188;2024-02-21T13:09:01;2;2;
60816;PMS5003;51921;51.518;-3.188;2024-02-21T13:11:27;3;1;
60816;PMS5003;51921;51.518;-3.188;2024-02-21T13:13:52;3;2;
60816;PMS5003;51921;51.518;-3.188;2024-02-21T13:16:18;2;1;
60816;PMS5003;51921;51.518;-3.188;2024-02-21T13:18:43;1;0;
60816;PMS5003;51921;51.518;-3.188;2024-02-21T13:21:09;2;1;
60816;PMS5003;51921;51.518;-3.188;2024-02-21T13:23:34;1;1;
60816;PMS5003;51921;51.518;-3.188;2024-02-21T13:26:00;2;1;
60816;PMS5003;51921;51.518;-3.188;2024-02-21T13:28:25;3;2;
60816;PMS5003;51921;51.518;-3.188;2024-02-21T13:30:50;5;3;
60816;PMS5003;51921;51.518;-3.188;2024-02-21T13:33:16;4;3;
60816;PMS5003;51921;51.518;-3.188;2024-02-21T13:35:41;3;2;
60816;PMS5003;51921;51.518;-3.188;2024-02-21T13:38:07;3;2;
60816;PMS5003;51921;51.518;-3.188;2024-02-21T13:40:32;1;1;
60816;PMS5003;51921;51.518;-3.188;2024-02-21T13:42:58;4;2;
60816;PMS5003;51921;51.518;-3.188;2024-02-21T13:45:23;2;2;
60816;PMS5003;51921;51.518;-3.188;2024-02-21T13:47:49;2;0;
60816;PMS5003;51921;51.518;-3.188;2024-02-21T13:50:14;0;0;
60816;PMS5003;51921;51.518;-3.188;2024-02-21T13:52:40;0;0;
60816;PMS5003;51921;51.518;-3.188;2024-02-21T13:55:05;1;1;
60816;PMS5003;51921;51.518;-3.188;2024-02-21T13:57:30;1;0;
60816;PMS5003;51921;51.518;-3.188;2024-02-21T13:59:56;1;1;
60816;PMS5003;51921;51.518;-3.188;2024-02-21T14:02:21;0;0;
60816;PMS5003;51921;51.518;-3.188;2024-02-21T14:04:47;3;1;
60816;PMS5003;51921;51.518;-3.188;2024-02-21T14:07:12;3;3;
60816;PMS5003;51921;51.518;-3.188;2024-02-21T14:09:38;3;3;
60816;PMS5003;51921;51.518;-3.188;2024-02-21T14:12:03;6;4;
60816;PMS5003;51921;51.518;-3.188;2024-02-21T14:14:29;6;6;
60816;PMS5003;51921;51.518;-3.188;2024-02-21T14:16:54;10;6;
60816;PMS5003;51921;51.518;-3.188;2024-02-21T14:19:20;6;5;
60816;PMS5003;51921;51.518;-3.188;2024-02-21T14:21:45;9;7;
60816;PMS5003;51921;51.518;-3.188;2024-02-21T14:24:11;10;9;
60816;PMS5003;51921;51.518;-3.188;2024-02-21T14:26:36;14;12;
60816;PMS5003;51921;51.518;-3.188;2024-02-21T14:29:01;6;5;
60816;PMS5003;51921;51.518;-3.188;2024-02-21T14:31:27;15;11;
60816;PMS5003;51921;51.518;-3.188;2024-02-21T14:33:53;13;8;
60816;PMS5003;51921;51.518;-3.188;2024-02-21T14:36:19;12;9;
60816;PMS5003;51921;51.518;-3.188;2024-02-21T14:38:44;12;8;
60816;PMS5003;51921;51.518;-3.188;2024-02-21T14:41:09;6;6;
60816;PMS5003;51921;51.518;-3.188;2024-02-21T14:43:35;13;11;
60816;PMS5003;51921;51.518;-3.188;2024-02-21T14:46:00;14;7;
60816;PMS5003;51921;51.518;-3.188;2024-02-21T14:48:25;10;8;
60816;PMS5003;51921;51.518;-3.188;2024-02-21T14:50:50;13;10;
60816;PMS5003;51921;51.518;-3.188;2024-02-21T14:53:15;17;11;
60816;PMS5003;51921;51.518;-3.188;2024-02-21T14:55:41;10;7;
60816;PMS5003;51921;51.518;-3.188;2024-02-21T14:58:07;16;10;
60816;PMS5003;51921;51.518;-3.188;2024-02-21T15:00:33;11;9;
60816;PMS5003;51921;51.518;-3.188;2024-02-21T15:02:59;10;6;
60816;PMS5003;51921;51.518;-3.188;2024-02-21T15:05:23;11;8;
60816;PMS5003;51921;51.518;-3.188;2024-02-21T15:07:48;14;10;
60816;PMS5003;51921;51.518;-3.188;2024-02-21T15:10:14;14;10;
60816;PMS5003;51921;51.518;-3.188;2024-02-21T15:12:40;11;7;
60816;PMS5003;51921;51.518;-3.188;2024-02-21T15:15:06;12;9;
60816;PMS5003;51921;51.518;-3.188;2024-02-21T15:17:31;12;11;
60816;PMS5003;51921;51.518;-3.188;2024-02-21T15:19:56;12;9;
60816;PMS5003;51921;51.518;-3.188;2024-02-21T15:22:22;11;10;
60816;PMS5003;51921;51.518;-3.188;2024-02-21T15:24:47;15;9;
60816;PMS5003;51921;51.518;-3.188;2024-02-21T15:27:13;16;11;
60816;PMS5003;51921;51.518;-3.188;2024-02-21T15:29:38;12;11;
60816;PMS5003;51921;51.518;-3.188;2024-02-21T15:32:04;12;11;
60816;PMS5003;51921;51.518;-3.188;2024-02-21T15:34:29;14;13;
60816;PMS5003;51921;51.518;-3.188;2024-02-21T15:36:55;17;13;
60816;PMS5003;51921;51.518;-3.188;2024-02-21T15:39:21;13;9;
60816;PMS5003;51921;51.518;-3.188;2024-02-21T15:41:46;16;15;
60816;PMS5003;51921;51.518;-3.188;2024-02-21T15:44:11;16;13;
60816;PMS5003;51921;51.518;-3.188;2024-02-21T15:46:37;15;12;
60816;PMS5003;51921;51.518;-3.188;2024-02-21T15:49:02;15;11;
60816;PMS5003;51921;51.518;-3.188;2024-02-21T15:51:27;14;11;
60816;PMS5003;51921;51.518;-3.188;2024-02-21T15:56:18;16;13;
60816;PMS5003;51921;51.518;-3.188;2024-02-21T15:58:43;15;11;
60816;PMS5003;51921;51.518;-3.188;2024-02-21T16:01:09;14;12;
60816;PMS5003;51921;51.518;-3.188;2024-02-21T16:03:34;14;12;
60816;PMS5003;51921;51.518;-3.188;2024-02-21T16:06:00;8;8;
60816;PMS5003;51921;51.518;-3.188;2024-02-21T16:08:26;11;9;
60816;PMS5003;51921;51.518;-3.188;2024-02-21T16:10:51;16;9;
60816;PMS5003;51921;51.518;-3.188;2024-02-21T16:13:16;11;9;
60816;PMS5003;51921;51.518;-3.188;2024-02-21T16:15:42;10;8;
60816;PMS5003;51921;51.518;-3.188;2024-02-21T16:18:07;13;10;
60816;PMS5003;51921;51.518;-3.188;2024-02-21T16:20:32;11;9;
60816;PMS5003;51921;51.518;-3.188;2024-02-21T16:22:58;7;6;
60816;PMS5003;51921;51.518;-3.188;2024-02-21T16:25:23;10;7;
60816;PMS5003;51921;51.518;-3.188;2024-02-21T16:27:48;11;10;
60816;PMS5003;51921;51.518;-3.188;2024-02-21T16:30:14;9;8;